createdAt,value
2022-10-01T00:02:16.141Z,7.75
2022-10-01T00:04:44.177Z,7.47
2022-10-01T00:07:15.079Z,7.30
2022-10-01T00:09:43.161Z,7.54
2022-10-01T00:12:11.148Z,7.32
2022-10-01T00:14:41.450Z,7.63
2022-10-01T00:17:09.432Z,7.43
2022-10-01T00:19:41.071Z,7.83
2022-10-01T00:22:09.076Z,7.44
2022-10-01T00:24:37.690Z,7.24
2022-10-01T00:27:05.679Z,7.26
2022-10-01T00:29:33.724Z,7.17
2022-10-01T00:32:03.889Z,7.48
2022-10-01T00:34:31.984Z,7.34
2022-10-01T00:37:01.428Z,7.29
2022-10-01T00:39:29.440Z,7.35
2022-10-01T00:41:57.417Z,7.72
2022-10-01T00:44:29.369Z,7.33
2022-10-01T00:46:59.315Z,7.68
2022-10-01T00:49:29.263Z,7.56
2022-10-01T00:52:01.405Z,7.66
2022-10-01T00:54:33.165Z,7.62
2022-10-01T00:57:02.066Z,7.62
2022-10-01T00:59:30.743Z,7.50
2022-10-01T01:01:58.782Z,7.86
2022-10-01T01:04:27.813Z,7.98
2022-10-01T01:06:57.933Z,7.53
2022-10-01T01:09:30.446Z,7.64
2022-10-01T01:12:04.715Z,7.63
2022-10-01T01:14:37.844Z,7.71
2022-10-01T01:17:12.498Z,7.79
2022-10-01T01:19:53.287Z,7.65
2022-10-01T01:22:22.348Z,7.68
2022-10-01T01:24:56.837Z,7.72
2022-10-01T01:27:35.874Z,7.77
2022-10-01T01:30:06.203Z,7.63
2022-10-01T01:32:39.384Z,8.04
2022-10-01T01:35:09.228Z,8.05
2022-10-01T01:37:40.511Z,8.08
2022-10-01T01:40:11.455Z,7.96
2022-10-01T01:42:42.462Z,7.77
2022-10-01T01:45:16.200Z,7.84
2022-10-01T01:47:45.039Z,7.78
2022-10-01T01:50:14.066Z,7.89
2022-10-01T01:52:42.218Z,8.08
2022-10-01T01:55:10.759Z,8.05
2022-10-01T01:57:40.247Z,8.09
2022-10-01T02:00:09.197Z,7.98
2022-10-01T02:02:41.402Z,8.23
2022-10-01T02:05:10.747Z,8.23
2022-10-01T02:07:52.726Z,7.93
2022-10-01T02:10:31.804Z,8.04
2022-10-01T02:13:08.216Z,8.32
2022-10-01T02:15:41.674Z,8.27
2022-10-01T02:18:17.478Z,8.18
2022-10-01T02:20:47.215Z,8.34
2022-10-01T02:23:17.462Z,8.44
2022-10-01T02:25:48.373Z,8.51
2022-10-01T02:28:22.599Z,8.53
2022-10-01T02:30:51.322Z,8.53
2022-10-01T02:33:22.834Z,8.60
2022-10-01T02:35:52.030Z,8.57
2022-10-01T02:38:22.267Z,8.81
2022-10-01T02:40:52.030Z,8.73
2022-10-01T02:43:22.116Z,8.71
2022-10-01T02:45:52.614Z,8.68
2022-10-01T02:48:27.145Z,8.64
2022-10-01T02:50:58.605Z,8.57
2022-10-01T02:53:29.835Z,8.75
2022-10-01T02:55:59.403Z,8.67
2022-10-01T02:58:26.691Z,8.56
2022-10-01T03:00:57.148Z,8.69
2022-10-01T03:03:27.286Z,8.40
2022-10-01T03:05:55.245Z,8.75
2022-10-01T03:08:23.279Z,8.84
2022-10-01T03:10:51.406Z,8.66
2022-10-01T03:13:19.786Z,8.71
2022-10-01T03:15:47.909Z,8.54
2022-10-01T03:18:15.942Z,8.57
2022-10-01T03:20:45.298Z,8.76
2022-10-01T03:23:13.237Z,8.79
2022-10-01T03:25:43.619Z,8.60
2022-10-01T03:28:12.558Z,8.59
2022-10-01T03:30:40.529Z,8.73
2022-10-01T03:33:08.490Z,8.68
2022-10-01T03:35:36.441Z,8.70
2022-10-01T03:38:06.511Z,8.64
2022-10-01T03:40:38.883Z,8.75
2022-10-01T03:43:07.098Z,8.80
2022-10-01T03:45:35.117Z,8.90
2022-10-01T03:48:03.098Z,8.88
2022-10-01T03:50:31.541Z,9.08
2022-10-01T03:53:00.147Z,9.10
2022-10-01T03:55:29.602Z,9.23
2022-10-01T03:57:58.607Z,8.96
2022-10-01T04:00:26.874Z,9.08
2022-10-01T04:02:57.315Z,9.35
2022-10-01T04:05:25.584Z,9.32
2022-10-01T04:07:53.501Z,9.26
2022-10-01T04:10:21.462Z,9.53
2022-10-01T04:12:55.526Z,9.43
2022-10-01T04:15:24.954Z,9.20
2022-10-01T04:17:52.950Z,9.30
2022-10-01T04:20:20.880Z,9.15
2022-10-01T04:22:48.965Z,9.41
2022-10-01T04:25:16.978Z,9.70
2022-10-01T04:27:56.237Z,9.45
2022-10-01T04:30:24.510Z,9.54
2022-10-01T04:32:52.426Z,9.29
2022-10-01T04:35:20.627Z,9.49
2022-10-01T04:37:49.315Z,9.72
2022-10-01T04:40:17.350Z,9.40
2022-10-01T04:42:47.651Z,9.42
2022-10-01T04:45:17.115Z,9.63
2022-10-01T04:47:49.122Z,9.45
2022-10-01T04:50:18.034Z,9.46
2022-10-01T04:52:49.730Z,9.25
2022-10-01T04:55:18.814Z,9.42
2022-10-01T04:57:46.836Z,9.29
2022-10-01T05:00:17.006Z,9.33
2022-10-01T05:02:46.828Z,9.52
2022-10-01T05:05:17.925Z,9.56
2022-10-01T05:07:46.442Z,9.73
2022-10-01T05:10:15.257Z,9.75
2022-10-01T05:12:43.518Z,9.53
2022-10-01T05:15:11.984Z,9.76
2022-10-01T05:17:40.013Z,9.60
2022-10-01T05:20:11.460Z,9.79
2022-10-01T05:22:41.802Z,9.74
2022-10-01T05:25:10.034Z,9.92
2022-10-01T05:27:40.694Z,9.65
2022-10-01T05:30:09.366Z,9.68
2022-10-01T05:32:37.636Z,10.18
2022-10-01T05:35:06.354Z,10.05
2022-10-01T05:37:35.622Z,10.03
2022-10-01T05:40:03.738Z,10.34
2022-10-01T05:42:31.702Z,10.07
2022-10-01T05:44:59.643Z,9.61
2022-10-01T05:47:29.690Z,9.51
2022-10-01T05:49:57.648Z,9.76
2022-10-01T05:52:25.637Z,9.97
2022-10-01T05:54:54.955Z,9.71
2022-10-01T05:57:22.966Z,9.79
2022-10-01T05:59:50.926Z,9.87
2022-10-01T06:02:21.139Z,9.75
2022-10-01T06:04:49.193Z,9.73
2022-10-01T06:07:17.162Z,9.90
2022-10-01T06:09:45.140Z,9.79
2022-10-01T06:12:17.728Z,10.28
2022-10-01T06:14:50.091Z,9.75
2022-10-01T06:17:20.178Z,9.93
2022-10-01T06:19:48.102Z,9.63
2022-10-01T06:22:16.399Z,9.79
2022-10-01T06:24:44.378Z,10.12
2022-10-01T06:27:13.693Z,9.97
2022-10-01T06:29:41.612Z,10.53
2022-10-01T06:32:13.407Z,10.57
2022-10-01T06:34:41.530Z,10.28
2022-10-01T06:37:09.434Z,10.33
2022-10-01T06:39:37.428Z,10.00
2022-10-01T06:42:05.739Z,10.17
2022-10-01T06:44:35.099Z,10.47
2022-10-01T06:47:03.108Z,10.54
2022-10-01T06:49:31.095Z,10.15
2022-10-01T06:52:16.624Z,10.24
2022-10-01T06:54:44.651Z,10.39
2022-10-01T06:57:12.603Z,9.79
2022-10-01T06:59:41.912Z,10.28
2022-10-01T07:02:15.569Z,10.02
2022-10-01T07:04:43.544Z,10.50
2022-10-01T07:07:11.515Z,10.35
2022-10-01T07:09:39.516Z,10.30
2022-10-01T07:12:07.851Z,9.91
2022-10-01T07:14:35.802Z,10.22
2022-10-01T07:17:07.592Z,10.19
2022-10-01T07:19:37.638Z,10.16
2022-10-01T07:22:05.849Z,10.37
2022-10-01T07:24:33.806Z,9.94
2022-10-01T07:27:07.091Z,10.07
2022-10-01T07:29:35.441Z,10.37
2022-10-01T07:32:08.868Z,10.32
2022-10-01T07:34:38.146Z,10.17
2022-10-01T07:37:06.444Z,10.41
2022-10-01T07:39:37.751Z,10.28
2022-10-01T07:42:05.849Z,10.37
2022-10-01T07:44:33.807Z,10.21
2022-10-01T07:47:01.847Z,10.54
2022-10-01T07:49:31.172Z,10.83
2022-10-01T07:51:59.615Z,10.65
2022-10-01T07:54:27.759Z,10.48
2022-10-01T07:56:56.635Z,10.72
2022-10-01T07:59:27.882Z,10.84
2022-10-01T08:01:55.986Z,10.54
2022-10-01T08:04:41.595Z,10.67
2022-10-01T08:07:10.892Z,10.92
2022-10-01T08:09:41.183Z,10.82
2022-10-01T08:12:09.149Z,10.56
2022-10-01T08:14:37.102Z,10.88
2022-10-01T08:17:08.463Z,10.71
2022-10-01T08:19:37.308Z,11.05
2022-10-01T08:22:05.632Z,10.96
2022-10-01T08:24:36.237Z,10.87
2022-10-01T08:27:04.390Z,11.20
2022-10-01T08:29:34.264Z,10.96
2022-10-01T08:32:02.508Z,11.20
2022-10-01T08:34:31.314Z,10.83
2022-10-01T08:37:01.511Z,10.93
2022-10-01T08:39:32.733Z,11.05
2022-10-01T08:42:05.600Z,11.00
2022-10-01T08:44:37.860Z,11.17
2022-10-01T08:47:08.287Z,10.77
2022-10-01T08:49:38.506Z,11.13
2022-10-01T08:52:14.429Z,11.11
2022-10-01T08:54:46.659Z,10.93
2022-10-01T08:57:17.872Z,11.31
2022-10-01T08:59:47.154Z,11.63
2022-10-01T09:02:23.367Z,11.40
2022-10-01T09:04:55.894Z,11.34
2022-10-01T09:07:34.803Z,11.67
2022-10-01T09:10:07.628Z,11.98
2022-10-01T09:12:45.489Z,11.83
2022-10-01T09:15:17.865Z,11.51
2022-10-01T09:17:53.600Z,11.81
2022-10-01T09:20:24.784Z,11.60
2022-10-01T09:23:02.959Z,11.69
2022-10-01T09:25:32.062Z,11.92
2022-10-01T09:28:04.268Z,11.63
2022-10-01T09:30:32.816Z,11.73
2022-10-01T09:33:06.127Z,11.63
2022-10-01T09:35:38.571Z,11.93
2022-10-01T09:38:11.571Z,11.30
2022-10-01T09:40:43.708Z,11.53
2022-10-01T09:43:14.074Z,12.16
2022-10-01T09:45:42.737Z,11.28
2022-10-01T09:48:16.308Z,11.32
2022-10-01T09:50:50.312Z,11.19
2022-10-01T09:53:21.155Z,11.28
2022-10-01T09:55:53.778Z,11.57
2022-10-01T09:58:24.720Z,11.93
2022-10-01T10:00:53.841Z,12.08
2022-10-01T10:03:26.517Z,11.88
2022-10-01T10:05:55.047Z,11.83
2022-10-01T10:08:27.611Z,11.68
2022-10-01T10:10:58.371Z,11.43
2022-10-01T10:13:31.557Z,11.79
2022-10-01T10:16:00.750Z,11.72
2022-10-01T10:18:29.784Z,11.89
2022-10-01T10:21:02.646Z,12.09
2022-10-01T10:23:31.312Z,12.21
2022-10-01T10:26:02.851Z,12.53
2022-10-01T10:28:43.871Z,12.54
2022-10-01T10:31:15.304Z,12.89
2022-10-01T10:33:47.792Z,12.79
2022-10-01T10:36:16.627Z,13.15
2022-10-01T10:38:47.441Z,13.14
2022-10-01T10:41:19.404Z,12.75
2022-10-01T10:43:50.560Z,12.73
2022-10-01T10:46:22.868Z,12.93
2022-10-01T10:48:58.686Z,13.13
2022-10-01T10:51:28.226Z,13.16
2022-10-01T10:53:59.093Z,13.14
2022-10-01T10:56:27.080Z,13.16
2022-10-01T10:58:57.435Z,12.94
2022-10-01T11:01:28.019Z,13.06
2022-10-01T11:03:57.573Z,13.54
2022-10-01T11:06:25.556Z,12.94
2022-10-01T11:09:00.782Z,13.47
2022-10-01T11:11:36.750Z,13.47
2022-10-01T11:14:18.067Z,13.32
2022-10-01T11:17:01.262Z,13.01
2022-10-01T11:19:39.949Z,13.06
2022-10-01T11:22:15.082Z,13.17
2022-10-01T11:24:55.472Z,13.26
2022-10-01T11:27:28.228Z,13.45
2022-10-01T11:30:05.344Z,12.86
2022-10-01T11:32:36.322Z,13.24
2022-10-01T11:35:11.392Z,13.22
2022-10-01T11:37:44.199Z,13.12
2022-10-01T11:40:16.739Z,13.28
2022-10-01T11:42:47.119Z,13.11
2022-10-01T11:45:21.286Z,13.24
2022-10-01T11:47:52.864Z,13.19
2022-10-01T11:50:26.184Z,12.94
2022-10-01T11:52:57.622Z,13.04
2022-10-01T11:55:45.225Z,13.42
2022-10-01T11:58:33.948Z,13.33
2022-10-01T12:01:06.537Z,13.31
2022-10-01T12:03:38.119Z,13.43
2022-10-01T12:06:09.482Z,13.66
2022-10-01T12:08:42.734Z,13.83
2022-10-01T12:11:17.734Z,13.80
2022-10-01T12:13:53.127Z,14.18
2022-10-01T12:16:26.496Z,13.98
2022-10-01T12:18:57.851Z,14.03
2022-10-01T12:21:29.051Z,14.22
2022-10-01T12:23:59.241Z,14.27
2022-10-01T12:26:35.472Z,14.50
2022-10-01T12:29:09.842Z,14.62
2022-10-01T12:31:43.510Z,14.29
2022-10-01T12:34:16.804Z,14.38
2022-10-01T12:36:49.500Z,14.42
2022-10-01T12:39:25.104Z,14.34
2022-10-01T12:42:00.023Z,14.56
2022-10-01T12:44:37.106Z,14.46
2022-10-01T12:47:12.410Z,14.64
2022-10-01T12:49:44.581Z,14.68
2022-10-01T12:52:18.577Z,14.87
2022-10-01T12:54:55.192Z,15.47
2022-10-01T12:57:28.910Z,14.94
2022-10-01T13:00:02.257Z,15.04
2022-10-01T13:02:48.825Z,15.07
2022-10-01T13:05:20.054Z,15.01
2022-10-01T13:07:56.485Z,15.02
2022-10-01T13:10:35.952Z,15.10
2022-10-01T13:13:08.111Z,15.20
2022-10-01T13:15:37.828Z,15.36
2022-10-01T13:18:14.982Z,15.44
2022-10-01T13:20:49.021Z,15.61
2022-10-01T13:23:21.371Z,16.00
2022-10-01T13:25:57.503Z,16.55
2022-10-01T13:28:29.853Z,16.35
2022-10-01T13:31:01.293Z,16.35
2022-10-01T13:33:32.151Z,16.36
2022-10-01T13:36:00.989Z,16.78
2022-10-01T13:38:40.500Z,16.43
2022-10-01T13:41:17.632Z,16.83
2022-10-01T13:43:52.469Z,16.72
2022-10-01T13:46:20.938Z,16.38
2022-10-01T13:48:51.081Z,16.70
2022-10-01T13:51:20.213Z,16.38
2022-10-01T13:53:55.539Z,16.39
2022-10-01T13:56:32.438Z,16.50
2022-10-01T13:59:00.972Z,16.11
2022-10-01T14:01:38.182Z,16.00
2022-10-01T14:04:17.791Z,15.95
2022-10-01T14:06:51.741Z,15.91
2022-10-01T14:09:23.889Z,15.50
2022-10-01T14:12:14.585Z,15.49
2022-10-01T14:15:02.086Z,15.32
2022-10-01T14:17:31.506Z,15.48
2022-10-01T14:20:01.352Z,15.52
2022-10-01T14:22:44.256Z,15.56
2022-10-01T14:25:20.940Z,15.62
2022-10-01T14:27:53.965Z,15.44
2022-10-01T14:30:24.991Z,15.55
2022-10-01T14:33:07.639Z,15.71
2022-10-01T14:35:39.655Z,16.16
2022-10-01T14:38:13.305Z,16.44
2022-10-01T14:40:42.956Z,16.55
2022-10-01T14:43:16.932Z,16.08
2022-10-01T14:45:52.296Z,15.95
2022-10-01T14:48:20.304Z,16.06
2022-10-01T14:50:51.759Z,16.32
2022-10-01T14:53:20.454Z,16.04
2022-10-01T14:55:49.342Z,15.65
2022-10-01T14:58:20.996Z,15.67
2022-10-01T15:00:51.083Z,16.12
2022-10-01T15:03:19.064Z,16.20
2022-10-01T15:05:48.295Z,16.07
2022-10-01T15:08:19.754Z,15.93
2022-10-01T15:10:50.794Z,16.41
2022-10-01T15:13:20.017Z,16.29
2022-10-01T15:15:48.055Z,16.76
2022-10-01T15:18:17.552Z,16.34
2022-10-01T15:20:55.824Z,16.30
2022-10-01T15:23:28.780Z,16.34
2022-10-01T15:25:58.009Z,16.22
2022-10-01T15:28:28.541Z,15.93
2022-10-01T15:30:57.824Z,15.46
2022-10-01T15:33:28.476Z,15.43
2022-10-01T15:35:58.108Z,15.05
2022-10-01T15:38:30.859Z,15.22
2022-10-01T15:41:19.850Z,15.12
2022-10-01T15:43:48.415Z,15.15
2022-10-01T15:46:17.816Z,15.13
2022-10-01T15:48:46.565Z,15.19
2022-10-01T15:51:20.096Z,15.24
2022-10-01T15:53:49.520Z,15.43
2022-10-01T15:56:18.661Z,15.20
2022-10-01T15:58:51.074Z,14.85
2022-10-01T16:01:22.490Z,15.06
2022-10-01T16:03:53.492Z,15.19
2022-10-01T16:06:23.790Z,15.15
2022-10-01T16:09:06.333Z,15.23
2022-10-01T16:11:51.051Z,15.31
2022-10-01T16:14:22.211Z,14.94
2022-10-01T16:16:50.642Z,14.84
2022-10-01T16:19:29.378Z,14.94
2022-10-01T16:22:14.622Z,14.80
2022-10-01T16:24:45.494Z,14.96
2022-10-01T16:27:15.975Z,14.66
2022-10-01T16:29:44.381Z,14.70
2022-10-01T16:32:14.448Z,14.72
2022-10-01T16:34:42.431Z,14.50
2022-10-01T16:37:10.432Z,14.76
2022-10-01T16:39:38.529Z,14.58
2022-10-01T16:42:23.452Z,14.75
2022-10-01T16:44:52.474Z,14.63
2022-10-01T16:47:20.454Z,14.66
2022-10-01T16:49:48.915Z,14.51
2022-10-01T16:52:17.558Z,14.41
2022-10-01T16:54:47.315Z,14.65
2022-10-01T16:57:16.903Z,14.58
2022-10-01T16:59:44.955Z,14.47
2022-10-01T17:02:14.112Z,14.79
2022-10-01T17:04:44.414Z,14.54
2022-10-01T17:07:12.378Z,14.59
2022-10-01T17:09:40.948Z,14.68
2022-10-01T17:12:09.985Z,14.68
2022-10-01T17:14:39.271Z,14.89
2022-10-01T17:17:07.279Z,14.81
2022-10-01T17:19:35.242Z,14.49
2022-10-01T17:22:03.287Z,14.21
2022-10-01T17:24:32.815Z,14.44
2022-10-01T17:27:00.979Z,14.31
2022-10-01T17:29:30.802Z,14.41
2022-10-01T17:32:00.293Z,14.24
2022-10-01T17:34:28.300Z,14.29
2022-10-01T17:36:56.400Z,14.28
2022-10-01T17:39:24.563Z,14.32
2022-10-01T17:41:52.604Z,14.47
2022-10-01T17:44:20.606Z,14.69
2022-10-01T17:46:48.579Z,14.71
2022-10-01T17:49:18.565Z,14.75
2022-10-01T17:51:49.322Z,14.52
2022-10-01T17:54:17.645Z,14.27
2022-10-01T17:56:45.808Z,14.52
2022-10-01T17:59:14.121Z,14.48
2022-10-01T18:01:42.150Z,14.48
2022-10-01T18:04:12.267Z,14.63
2022-10-01T18:06:42.264Z,14.56
2022-10-01T18:09:10.280Z,14.48
2022-10-01T18:11:39.363Z,14.49
2022-10-01T18:14:07.688Z,14.47
2022-10-01T18:16:39.438Z,14.46
2022-10-01T18:19:52.494Z,14.34
2022-10-01T18:22:03.159Z,14.46
2022-10-01T18:24:33.054Z,14.35
2022-10-01T18:27:01.030Z,14.31
2022-10-01T18:29:29.127Z,14.40
2022-10-01T18:32:02.874Z,14.20
2022-10-01T18:34:33.059Z,14.08
2022-10-01T18:37:05.601Z,13.93
2022-10-01T18:39:35.459Z,14.07
2022-10-01T18:42:04.589Z,13.62
2022-10-01T18:44:32.803Z,13.94
2022-10-01T18:47:08.897Z,13.94
2022-10-01T18:49:54.842Z,14.00
2022-10-01T18:52:28.273Z,14.06
2022-10-01T18:55:06.666Z,14.02
2022-10-01T18:57:45.701Z,13.72
2022-10-01T19:00:15.492Z,13.83
2022-10-01T19:03:02.226Z,13.65
2022-10-01T19:06:04.434Z,13.77
2022-10-01T19:08:41.999Z,13.86
2022-10-01T19:11:18.135Z,13.89
2022-10-01T19:13:52.079Z,13.79
2022-10-01T19:16:28.136Z,13.63
2022-10-01T19:19:07.894Z,13.66
2022-10-01T19:21:40.883Z,13.86
2022-10-01T19:24:32.741Z,13.55
2022-10-01T19:27:05.251Z,13.62
2022-10-01T19:29:50.334Z,13.68
2022-10-01T19:32:20.818Z,13.76
2022-10-01T19:34:50.778Z,13.94
2022-10-01T19:37:24.498Z,13.95
2022-10-01T19:39:54.157Z,13.82
2022-10-01T19:42:26.811Z,13.60
2022-10-01T19:44:58.582Z,13.43
2022-10-01T19:47:32.631Z,13.73
2022-10-01T19:50:06.336Z,13.69
2022-10-01T19:52:39.506Z,13.64
2022-10-01T19:55:14.212Z,13.57
2022-10-01T19:57:44.367Z,13.52
2022-10-01T20:00:17.970Z,13.86
2022-10-01T20:02:53.934Z,13.84
2022-10-01T20:05:29.224Z,13.82
2022-10-01T20:08:04.189Z,13.59
2022-10-01T20:10:37.262Z,13.62
2022-10-01T20:13:25.344Z,13.52
2022-10-01T20:15:57.036Z,13.57
2022-10-01T20:18:31.116Z,13.65
2022-10-01T20:21:05.262Z,13.52
2022-10-01T20:23:43.478Z,13.76
2022-10-01T20:26:16.836Z,13.60
2022-10-01T20:28:52.721Z,13.59
2022-10-01T20:31:23.523Z,13.62
2022-10-01T20:33:59.814Z,13.69
2022-10-01T20:36:35.135Z,13.69
2022-10-01T20:39:07.831Z,13.59
2022-10-01T20:41:42.399Z,13.47
2022-10-01T20:44:16.152Z,13.52
2022-10-01T20:46:46.762Z,13.39
2022-10-01T20:49:20.611Z,13.56
2022-10-01T20:51:53.189Z,13.43
2022-10-01T20:54:22.876Z,13.59
2022-10-01T20:56:55.669Z,13.48
2022-10-01T20:59:28.141Z,13.55
2022-10-01T21:02:02.246Z,13.93
2022-10-01T21:04:33.646Z,13.69
2022-10-01T21:07:10.815Z,13.62
2022-10-01T21:09:42.188Z,13.90
2022-10-01T21:12:16.133Z,13.56
2022-10-01T21:14:47.734Z,13.67
2022-10-01T21:17:21.548Z,13.73
2022-10-01T21:20:02.209Z,13.73
2022-10-01T21:22:37.637Z,13.71
2022-10-01T21:25:12.932Z,13.67
2022-10-01T21:27:50.422Z,13.54
2022-10-01T21:30:20.878Z,13.91
2022-10-01T21:33:00.061Z,13.96
2022-10-01T21:35:34.200Z,14.07
2022-10-01T21:38:06.147Z,13.88
2022-10-01T21:40:40.187Z,13.97
2022-10-01T21:43:13.303Z,14.07
2022-10-01T21:45:45.573Z,13.98
2022-10-01T21:48:20.580Z,14.06
2022-10-01T21:50:53.939Z,14.18
2022-10-01T21:53:37.883Z,14.15
2022-10-01T21:56:30.007Z,14.22
2022-10-01T22:02:47.353Z,13.97
2022-10-01T22:05:22.515Z,14.08
2022-10-01T22:08:00.621Z,14.04
2022-10-01T22:10:35.144Z,14.07
2022-10-01T22:13:07.764Z,14.19
2022-10-01T22:15:39.631Z,14.33
2022-10-01T22:18:15.880Z,14.30
2022-10-01T22:20:45.930Z,14.21
2022-10-01T22:23:18.175Z,14.30
2022-10-01T22:25:52.392Z,14.30
2022-10-01T22:28:26.193Z,14.15
2022-10-01T22:30:57.437Z,14.05
2022-10-01T22:33:33.401Z,14.12
2022-10-01T22:36:08.274Z,14.19
2022-10-01T22:38:43.079Z,14.09
2022-10-01T22:41:17.310Z,14.28
2022-10-01T22:43:45.822Z,14.16
2022-10-01T22:46:38.890Z,13.86
2022-10-01T22:49:20.757Z,13.93
2022-10-01T22:52:01.660Z,13.64
2022-10-01T22:54:35.955Z,13.58
2022-10-01T22:57:10.263Z,13.44
2022-10-01T22:59:43.632Z,13.70
2022-10-01T23:02:18.137Z,13.55
2022-10-01T23:04:55.888Z,13.48
2022-10-01T23:07:29.694Z,13.80
2022-10-01T23:10:00.718Z,13.67
2022-10-01T23:12:34.750Z,13.48
2022-10-01T23:15:11.515Z,13.40
2022-10-01T23:17:42.823Z,13.59
2022-10-01T23:20:17.033Z,13.60
2022-10-01T23:22:56.179Z,13.67
2022-10-01T23:25:30.216Z,14.00
2022-10-01T23:28:06.599Z,13.64
2022-10-01T23:30:38.348Z,14.01
2022-10-01T23:33:22.330Z,13.81
2022-10-01T23:35:59.560Z,14.01
2022-10-01T23:38:43.308Z,13.87
2022-10-01T23:41:14.774Z,14.06
2022-10-01T23:43:46.371Z,13.92
2022-10-01T23:46:16.107Z,14.17
2022-10-01T23:48:47.283Z,14.10
2022-10-01T23:51:19.976Z,14.03
2022-10-01T23:53:52.860Z,14.26
2022-10-01T23:56:41.004Z,14.09
2022-10-01T23:59:11.604Z,14.06
